createdAt,value
2018-12-18T00:02:41.151Z,83.20
2018-12-18T00:06:44.784Z,83.10
2018-12-18T00:10:52.670Z,83.40
2018-12-18T00:14:56.294Z,83.60
2018-12-18T00:18:59.926Z,83.50
2018-12-18T00:23:03.615Z,83.30
2018-12-18T00:27:07.251Z,83.10
2018-12-18T00:31:10.901Z,82.90
2018-12-18T00:35:14.538Z,82.90
2018-12-18T00:39:18.177Z,83.40
2018-12-18T00:43:21.893Z,83.00
2018-12-18T00:47:25.550Z,82.80
2018-12-18T00:51:29.168Z,82.70
2018-12-18T00:55:32.810Z,82.90
2018-12-18T00:59:36.423Z,83.00
2018-12-18T01:03:40.254Z,83.10
2018-12-18T01:07:43.889Z,83.30
2018-12-18T01:11:48.278Z,83.10
2018-12-18T01:15:51.940Z,83.10
2018-12-18T01:19:55.605Z,82.90
2018-12-18T01:23:59.245Z,81.90
2018-12-18T01:28:02.903Z,82.60
2018-12-18T01:32:06.535Z,82.60
2018-12-18T01:36:10.173Z,82.50
2018-12-18T01:40:13.786Z,82.40
2018-12-18T01:44:17.410Z,82.50
2018-12-18T01:48:21.053Z,82.70
2018-12-18T01:52:24.686Z,82.70
2018-12-18T01:56:28.310Z,83.10
2018-12-18T02:00:32.110Z,82.90
2018-12-18T02:04:35.875Z,83.00
2018-12-18T02:08:39.520Z,83.10
2018-12-18T02:12:43.207Z,83.10
2018-12-18T02:16:46.882Z,83.30
2018-12-18T02:20:50.494Z,83.00
2018-12-18T02:24:54.132Z,83.10
2018-12-18T02:28:57.777Z,83.00
2018-12-18T02:33:01.476Z,83.00
2018-12-18T02:37:05.127Z,83.10
2018-12-18T02:41:08.742Z,83.10
2018-12-18T02:45:12.374Z,83.10
2018-12-18T02:49:15.999Z,83.10
2018-12-18T02:53:19.711Z,83.20
2018-12-18T02:57:23.357Z,83.20
2018-12-18T03:01:26.961Z,83.20
2018-12-18T03:05:30.625Z,83.20
2018-12-18T03:09:34.266Z,83.20
2018-12-18T03:13:37.981Z,83.20
2018-12-18T03:17:41.608Z,83.90
2018-12-18T03:21:45.252Z,83.20
2018-12-18T03:25:48.850Z,83.30
2018-12-18T03:29:52.510Z,83.20
2018-12-18T03:33:56.238Z,83.10
2018-12-18T03:37:59.886Z,83.00
2018-12-18T03:42:03.543Z,83.00
2018-12-18T03:46:07.162Z,83.10
2018-12-18T03:50:10.944Z,83.10
2018-12-18T03:54:14.571Z,83.10
2018-12-18T03:58:18.198Z,83.10
2018-12-18T04:02:21.817Z,83.20
2018-12-18T04:06:25.420Z,83.10
2018-12-18T04:10:29.083Z,83.10
2018-12-18T04:14:32.763Z,83.90
2018-12-18T04:18:36.886Z,83.10
2018-12-18T04:22:40.585Z,82.90
2018-12-18T04:26:44.192Z,82.90
2018-12-18T04:30:47.833Z,82.90
2018-12-18T04:34:51.487Z,83.00
2018-12-18T04:38:55.132Z,82.90
2018-12-18T04:42:58.770Z,82.20
2018-12-18T04:47:02.406Z,82.90
2018-12-18T04:51:06.043Z,82.80
2018-12-18T04:55:09.689Z,82.80
2018-12-18T04:59:13.335Z,82.90
2018-12-18T05:03:16.977Z,82.80
2018-12-18T05:07:20.579Z,82.90
2018-12-18T05:11:24.213Z,82.80
2018-12-18T05:15:27.894Z,82.80
2018-12-18T05:19:31.662Z,83.50
2018-12-18T05:23:35.371Z,82.90
2018-12-18T05:27:38.974Z,82.80
2018-12-18T05:31:42.637Z,82.90
2018-12-18T05:35:46.249Z,83.10
2018-12-18T05:39:49.873Z,83.00
2018-12-18T05:43:53.534Z,83.00
2018-12-18T05:47:57.137Z,83.10
2018-12-18T05:52:00.791Z,83.00
2018-12-18T05:56:04.441Z,83.00
2018-12-18T06:00:08.244Z,83.10
2018-12-18T06:04:11.858Z,82.80
2018-12-18T06:08:15.497Z,82.70
2018-12-18T06:12:19.133Z,82.70
2018-12-18T06:16:22.791Z,82.70
2018-12-18T06:20:26.441Z,82.70
2018-12-18T06:24:30.071Z,82.70
2018-12-18T06:28:33.741Z,82.60
2018-12-18T06:32:37.361Z,82.50
2018-12-18T06:36:41.048Z,82.50
2018-12-18T06:40:44.701Z,82.70
2018-12-18T06:44:48.774Z,82.50
2018-12-18T06:48:52.441Z,82.50
2018-12-18T06:52:56.062Z,82.30
2018-12-18T06:56:59.711Z,82.30
2018-12-18T07:01:03.385Z,82.30
2018-12-18T07:05:07.041Z,82.20
2018-12-18T07:09:10.694Z,82.00
2018-12-18T07:13:14.297Z,81.30
2018-12-18T07:17:18.006Z,81.90
2018-12-18T07:21:21.661Z,81.90
2018-12-18T07:25:25.319Z,81.90
2018-12-18T07:29:28.961Z,81.80
2018-12-18T07:33:32.633Z,81.70
2018-12-18T07:37:36.269Z,81.60
2018-12-18T07:41:39.922Z,81.60
2018-12-18T07:45:43.561Z,81.50
2018-12-18T07:49:47.227Z,81.30
2018-12-18T07:53:50.881Z,81.40
2018-12-18T07:57:54.662Z,81.30
2018-12-18T08:01:58.292Z,80.80
2018-12-18T08:06:01.958Z,81.30
2018-12-18T08:10:06.161Z,81.10
2018-12-18T08:14:10.086Z,81.00
2018-12-18T08:18:13.757Z,81.10
2018-12-18T08:22:17.569Z,80.80
2018-12-18T08:26:21.359Z,81.50
2018-12-18T08:30:25.034Z,80.90
2018-12-18T08:34:28.766Z,80.80
2018-12-18T08:38:32.389Z,80.80
2018-12-18T08:42:36.014Z,80.80
2018-12-18T08:46:39.822Z,80.90
2018-12-18T08:50:43.839Z,80.80
2018-12-18T08:54:47.497Z,80.90
2018-12-18T08:58:51.146Z,81.00
2018-12-18T09:02:54.898Z,81.00
2018-12-18T09:06:58.970Z,80.90
2018-12-18T09:11:02.694Z,81.10
2018-12-18T09:15:12.555Z,81.00
2018-12-18T09:19:16.172Z,81.10
2018-12-18T09:23:20.005Z,81.20
2018-12-18T09:27:23.666Z,81.10
2018-12-18T09:31:27.329Z,81.10
2018-12-18T09:35:30.965Z,81.00
2018-12-18T09:39:39.753Z,81.00
2018-12-18T09:43:48.545Z,81.10
2018-12-18T09:47:52.188Z,81.00
2018-12-18T09:51:55.882Z,81.10
2018-12-18T09:55:59.545Z,81.10
2018-12-18T10:00:03.363Z,80.90
2018-12-18T10:04:07.017Z,81.00
2018-12-18T10:08:10.730Z,80.90
2018-12-18T10:12:16.439Z,80.60
2018-12-18T10:16:20.133Z,80.60
2018-12-18T10:20:23.785Z,80.50
2018-12-18T10:24:27.394Z,80.50
2018-12-18T10:28:31.099Z,80.30
2018-12-18T10:32:34.734Z,81.20
2018-12-18T10:36:38.523Z,80.20
2018-12-18T10:40:42.178Z,80.10
2018-12-18T10:44:45.897Z,80.10
2018-12-18T10:48:49.548Z,80.20
2018-12-18T10:52:53.194Z,80.20
2018-12-18T10:56:56.919Z,80.20
2018-12-18T11:02:06.864Z,79.70
2018-12-18T11:06:10.497Z,80.00
2018-12-18T11:10:14.271Z,80.50
2018-12-18T11:14:18.112Z,80.20
2018-12-18T11:18:21.735Z,79.70
2018-12-18T11:22:25.390Z,80.10
2018-12-18T11:26:29.085Z,79.40
2018-12-18T11:30:32.689Z,80.00
2018-12-18T11:34:36.333Z,79.10
2018-12-18T11:38:40.011Z,79.50
2018-12-18T11:42:43.654Z,79.40
2018-12-18T11:46:47.314Z,79.30
2018-12-18T11:50:50.936Z,78.70
2018-12-18T11:54:54.594Z,78.80
2018-12-18T11:58:58.327Z,79.20
2018-12-18T12:03:01.999Z,79.30
2018-12-18T12:07:05.663Z,78.40
2018-12-18T12:11:09.254Z,79.00
2018-12-18T12:15:13.539Z,78.80
2018-12-18T12:19:17.193Z,79.00
2018-12-18T12:23:20.841Z,78.40
2018-12-18T12:27:29.896Z,78.70
2018-12-18T12:31:33.518Z,77.60
2018-12-18T12:35:37.174Z,78.20
2018-12-18T12:39:40.834Z,79.70
2018-12-18T12:43:44.486Z,78.70
2018-12-18T12:47:51.642Z,78.40
2018-12-18T12:51:55.297Z,78.70
2018-12-18T12:55:58.919Z,78.10
2018-12-18T13:00:02.589Z,78.10
2018-12-18T13:04:06.233Z,78.00
2018-12-18T13:08:09.875Z,78.30
2018-12-18T13:12:13.505Z,78.10
2018-12-18T13:16:17.158Z,78.80
2018-12-18T13:20:20.824Z,78.40
2018-12-18T13:24:24.460Z,78.30
2018-12-18T13:28:28.119Z,78.60
2018-12-18T13:32:31.791Z,78.50
2018-12-18T13:36:35.428Z,78.50
2018-12-18T13:40:39.089Z,78.00
2018-12-18T13:44:42.742Z,78.10
2018-12-18T13:48:46.421Z,78.30
2018-12-18T13:52:50.085Z,77.70
2018-12-18T13:56:53.702Z,78.00
2018-12-18T14:00:57.406Z,77.70
2018-12-18T14:05:01.069Z,77.50
2018-12-18T14:09:08.157Z,77.70
2018-12-18T14:13:11.825Z,77.50
2018-12-18T14:17:15.955Z,77.30
2018-12-18T14:21:21.231Z,77.50
2018-12-18T14:25:24.942Z,78.00
2018-12-18T14:29:28.626Z,76.90
2018-12-18T14:33:32.715Z,77.70
2018-12-18T14:37:36.749Z,77.00
2018-12-18T14:41:40.429Z,77.50
2018-12-18T14:45:44.104Z,77.50
2018-12-18T14:49:47.763Z,78.40
2018-12-18T14:53:51.402Z,77.70
2018-12-18T14:57:55.033Z,77.70
2018-12-18T15:01:58.707Z,77.60
2018-12-18T15:06:02.392Z,77.50
2018-12-18T15:10:07.841Z,77.50
2018-12-18T15:14:11.541Z,77.10
2018-12-18T15:18:15.198Z,77.50
2018-12-18T15:22:18.965Z,77.80
2018-12-18T15:26:22.766Z,77.70
2018-12-18T15:30:26.553Z,77.50
2018-12-18T15:34:30.356Z,77.40
2018-12-18T15:38:34.139Z,77.30
2018-12-18T15:42:37.819Z,77.50
2018-12-18T15:46:41.470Z,77.40
2018-12-18T15:50:45.182Z,77.60
2018-12-18T15:54:48.794Z,77.50
2018-12-18T15:58:52.433Z,77.70
2018-12-18T16:02:56.082Z,77.70
2018-12-18T16:06:59.708Z,77.80
2018-12-18T16:11:03.365Z,77.80
2018-12-18T16:15:07.746Z,78.00
2018-12-18T16:19:11.401Z,77.90
2018-12-18T16:23:15.040Z,77.80
2018-12-18T16:27:18.696Z,77.70
2018-12-18T16:31:23.258Z,77.80
2018-12-18T16:35:28.243Z,78.20
2018-12-18T16:39:32.070Z,77.90
2018-12-18T16:43:35.738Z,77.80
2018-12-18T16:47:41.041Z,77.70
2018-12-18T16:51:44.816Z,77.90
2018-12-18T16:55:48.414Z,78.30
2018-12-18T16:59:52.997Z,78.00
2018-12-18T17:03:56.648Z,78.10
2018-12-18T17:08:00.411Z,78.20
2018-12-18T17:12:04.101Z,78.10
2018-12-18T17:16:07.834Z,78.00
2018-12-18T17:20:11.480Z,77.90
2018-12-18T17:24:15.113Z,77.80
2018-12-18T17:28:19.332Z,77.80
2018-12-18T17:32:22.978Z,77.80
2018-12-18T17:36:26.581Z,77.70
2018-12-18T17:40:30.844Z,77.80
2018-12-18T17:44:34.503Z,77.90
2018-12-18T17:48:38.161Z,77.90
2018-12-18T17:52:41.817Z,78.00
2018-12-18T17:56:45.474Z,77.90
2018-12-18T18:00:49.098Z,77.70
2018-12-18T18:04:52.727Z,77.90
2018-12-18T18:08:57.131Z,77.90
2018-12-18T18:13:00.818Z,77.60
2018-12-18T18:17:04.543Z,77.60
2018-12-18T18:21:08.160Z,77.70
2018-12-18T18:25:11.826Z,77.60
2018-12-18T18:29:15.464Z,77.50
2018-12-18T18:33:19.477Z,77.60
2018-12-18T18:37:23.110Z,77.60
2018-12-18T18:41:26.743Z,77.90
2018-12-18T18:45:30.863Z,78.20
2018-12-18T18:49:34.905Z,78.20
2018-12-18T18:53:38.792Z,78.30
2018-12-18T18:57:42.417Z,78.10
2018-12-18T19:01:46.038Z,78.50
2018-12-18T19:05:49.675Z,78.30
2018-12-18T19:09:53.401Z,78.10
2018-12-18T19:13:57.062Z,78.40
2018-12-18T19:18:00.731Z,78.00
2018-12-18T19:22:04.351Z,77.90
2018-12-18T19:26:07.998Z,78.00
2018-12-18T19:30:11.650Z,77.90
2018-12-18T19:34:15.300Z,77.90
2018-12-18T19:38:18.931Z,77.80
2018-12-18T19:42:22.703Z,78.10
2018-12-18T19:46:26.332Z,78.20
2018-12-18T19:50:30.051Z,78.30
2018-12-18T19:54:33.687Z,77.70
2018-12-18T19:58:37.346Z,78.30
2018-12-18T20:02:41.101Z,78.10
2018-12-18T20:06:44.773Z,78.10
2018-12-18T20:10:48.429Z,78.40
2018-12-18T20:14:52.196Z,78.40
2018-12-18T20:18:55.854Z,78.50
2018-12-18T20:22:59.814Z,78.60
2018-12-18T20:27:03.546Z,78.60
2018-12-18T20:31:07.270Z,79.00
2018-12-18T20:37:40.157Z,78.30
2018-12-18T20:41:43.835Z,78.90
2018-12-18T20:45:47.502Z,78.60
2018-12-18T20:49:51.145Z,78.40
2018-12-18T20:53:54.771Z,78.30
2018-12-18T20:57:58.369Z,78.50
2018-12-18T21:02:02.029Z,78.40
2018-12-18T21:06:05.911Z,78.40
2018-12-18T21:13:34.222Z,77.70
2018-12-18T21:17:38.071Z,78.30
2018-12-18T21:26:34.776Z,77.80
2018-12-18T21:30:38.621Z,78.50
2018-12-18T21:34:42.456Z,78.70
2018-12-18T21:38:46.230Z,78.50
2018-12-18T21:42:50.041Z,78.60
2018-12-18T21:46:53.854Z,78.40
2018-12-18T21:50:57.667Z,78.30
2018-12-18T21:55:01.541Z,78.20
2018-12-18T21:59:05.492Z,78.00
2018-12-18T22:03:09.306Z,77.80
2018-12-18T22:07:13.157Z,77.90
2018-12-18T22:11:16.986Z,77.90
2018-12-18T22:15:20.864Z,78.00
2018-12-18T22:19:24.689Z,77.90
2018-12-18T22:23:34.862Z,77.90
2018-12-18T22:27:38.507Z,78.10
2018-12-18T22:31:42.139Z,78.90
2018-12-18T22:35:45.771Z,77.90
2018-12-18T22:39:49.422Z,77.90
2018-12-18T22:43:53.029Z,77.90
2018-12-18T22:47:56.672Z,78.50
2018-12-18T22:52:00.348Z,77.50
2018-12-18T22:56:04.035Z,77.50
2018-12-18T23:00:09.302Z,77.70
2018-12-18T23:04:14.161Z,77.70
2018-12-18T23:08:17.816Z,77.40
2018-12-18T23:12:21.477Z,77.60
2018-12-18T23:16:25.138Z,77.60
2018-12-18T23:20:28.752Z,77.50
2018-12-18T23:24:32.359Z,77.40
2018-12-18T23:28:36.001Z,77.00
2018-12-18T23:32:39.621Z,77.90
2018-12-18T23:36:43.246Z,77.50
2018-12-18T23:40:46.890Z,77.80
2018-12-18T23:46:24.450Z,77.50
2018-12-18T23:50:28.194Z,78.70
2018-12-18T23:54:31.817Z,78.70
2018-12-18T23:58:35.437Z,78.80
